sensor_id;sensor_type;location;lat;lon;timestamp;P1;durP1;ratioP1;P2;durP2;ratioP2
54037;SDS011;39954;48.844;9.726;2023-05-10T00:00:12;1066.07;;;802.25;;
54037;SDS011;39954;48.844;9.726;2023-05-10T00:01:18;1469.13;;;836.33;;
54037;SDS011;39954;48.844;9.726;2023-05-10T00:02:20;1235.65;;;818.90;;
54037;SDS011;39954;48.844;9.726;2023-05-10T00:03:26;1146.20;;;798.05;;
54037;SDS011;39954;48.844;9.726;2023-05-10T00:04:31;1244.10;;;807.30;;
54037;SDS011;39954;48.844;9.726;2023-05-10T00:05:35;1129.28;;;784.67;;
54037;SDS011;39954;48.844;9.726;2023-05-10T00:06:37;1162.78;;;782.45;;
54037;SDS011;39954;48.844;9.726;2023-05-10T00:07:42;1315.65;;;812.20;;
54037;SDS011;39954;48.844;9.726;2023-05-10T00:08:46;1203.90;;;796.80;;
54037;SDS011;39954;48.844;9.726;2023-05-10T00:09:50;1169.32;;;800.15;;
54037;SDS011;39954;48.844;9.726;2023-05-10T00:10:53;1222.93;;;809.38;;
54037;SDS011;39954;48.844;9.726;2023-05-10T00:11:57;1151.47;;;802.45;;
54037;SDS011;39954;48.844;9.726;2023-05-10T00:13:00;1212.72;;;814.88;;
54037;SDS011;39954;48.844;9.726;2023-05-10T00:14:05;1130.20;;;805.97;;
54037;SDS011;39954;48.844;9.726;2023-05-10T00:15:08;1112.40;;;797.33;;
54037;SDS011;39954;48.844;9.726;2023-05-10T00:16:13;1111.43;;;792.75;;
54037;SDS011;39954;48.844;9.726;2023-05-10T00:17:16;1078.90;;;794.00;;
54037;SDS011;39954;48.844;9.726;2023-05-10T00:18:21;1207.07;;;812.60;;
54037;SDS011;39954;48.844;9.726;2023-05-10T00:19:23;1209.85;;;787.58;;
54037;SDS011;39954;48.844;9.726;2023-05-10T00:20:30;1099.28;;;766.13;;
54037;SDS011;39954;48.844;9.726;2023-05-10T00:21:33;1191.53;;;786.10;;
54037;SDS011;39954;48.844;9.726;2023-05-10T00:22:37;1108.72;;;776.33;;
54037;SDS011;39954;48.844;9.726;2023-05-10T00:23:40;1204.03;;;784.78;;
54037;SDS011;39954;48.844;9.726;2023-05-10T00:24:44;1223.53;;;780.33;;
54037;SDS011;39954;48.844;9.726;2023-05-10T00:25:46;1258.72;;;814.72;;
54037;SDS011;39954;48.844;9.726;2023-05-10T00:26:51;1327.28;;;808.45;;
54037;SDS011;39954;48.844;9.726;2023-05-10T00:27:53;1295.38;;;790.05;;
54037;SDS011;39954;48.844;9.726;2023-05-10T00:28:58;1209.25;;;790.60;;
54037;SDS011;39954;48.844;9.726;2023-05-10T00:30:01;1138.95;;;797.63;;
54037;SDS011;39954;48.844;9.726;2023-05-10T00:31:06;1115.80;;;783.13;;
54037;SDS011;39954;48.844;9.726;2023-05-10T00:32:08;1077.32;;;773.88;;
54037;SDS011;39954;48.844;9.726;2023-05-10T00:33:13;1073.10;;;783.13;;
54037;SDS011;39954;48.844;9.726;2023-05-10T00:34:15;1208.13;;;791.63;;
54037;SDS011;39954;48.844;9.726;2023-05-10T00:35:20;1223.55;;;794.60;;
54037;SDS011;39954;48.844;9.726;2023-05-10T00:36:25;1138.72;;;773.67;;
54037;SDS011;39954;48.844;9.726;2023-05-10T00:37:30;1130.10;;;780.40;;
54037;SDS011;39954;48.844;9.726;2023-05-10T00:38:32;1132.68;;;792.40;;
54037;SDS011;39954;48.844;9.726;2023-05-10T00:39:37;1352.32;;;824.25;;
54037;SDS011;39954;48.844;9.726;2023-05-10T00:40:39;1046.63;;;780.78;;
54037;SDS011;39954;48.844;9.726;2023-05-10T00:41:45;1233.30;;;799.85;;
54037;SDS011;39954;48.844;9.726;2023-05-10T00:42:47;1275.15;;;799.40;;
54037;SDS011;39954;48.844;9.726;2023-05-10T00:43:52;1292.53;;;811.03;;
54037;SDS011;39954;48.844;9.726;2023-05-10T00:44:54;1123.55;;;791.40;;
54037;SDS011;39954;48.844;9.726;2023-05-10T00:45:59;1007.03;;;786.25;;
54037;SDS011;39954;48.844;9.726;2023-05-10T00:47:01;1115.32;;;806.38;;
54037;SDS011;39954;48.844;9.726;2023-05-10T00:48:06;1046.40;;;794.25;;
54037;SDS011;39954;48.844;9.726;2023-05-10T00:49:08;1110.05;;;805.65;;
54037;SDS011;39954;48.844;9.726;2023-05-10T00:50:13;1100.20;;;811.22;;
54037;SDS011;39954;48.844;9.726;2023-05-10T00:51:16;1119.93;;;802.15;;
54037;SDS011;39954;48.844;9.726;2023-05-10T00:52:24;1180.35;;;800.50;;
54037;SDS011;39954;48.844;9.726;2023-05-10T00:53:27;1176.85;;;800.67;;
54037;SDS011;39954;48.844;9.726;2023-05-10T00:54:32;1133.70;;;798.17;;
54037;SDS011;39954;48.844;9.726;2023-05-10T00:55:35;1043.72;;;781.30;;
54037;SDS011;39954;48.844;9.726;2023-05-10T00:56:40;1271.70;;;820.83;;
54037;SDS011;39954;48.844;9.726;2023-05-10T00:57:43;1189.07;;;810.83;;
54037;SDS011;39954;48.844;9.726;2023-05-10T00:58:48;1111.38;;;787.90;;
54037;SDS011;39954;48.844;9.726;2023-05-10T00:59:50;1235.90;;;796.92;;
54037;SDS011;39954;48.844;9.726;2023-05-10T01:00:56;1147.35;;;788.58;;
54037;SDS011;39954;48.844;9.726;2023-05-10T01:01:59;1306.88;;;815.63;;
54037;SDS011;39954;48.844;9.726;2023-05-10T01:03:03;1156.72;;;783.63;;
54037;SDS011;39954;48.844;9.726;2023-05-10T01:04:06;1130.20;;;776.13;;
54037;SDS011;39954;48.844;9.726;2023-05-10T01:05:11;1208.28;;;761.70;;
54037;SDS011;39954;48.844;9.726;2023-05-10T01:06:14;1118.22;;;760.95;;
54037;SDS011;39954;48.844;9.726;2023-05-10T01:07:18;1203.28;;;768.03;;
54037;SDS011;39954;48.844;9.726;2023-05-10T01:08:23;1172.47;;;772.70;;
54037;SDS011;39954;48.844;9.726;2023-05-10T01:09:29;1153.03;;;772.72;;
54037;SDS011;39954;48.844;9.726;2023-05-10T01:10:31;1142.15;;;753.72;;
54037;SDS011;39954;48.844;9.726;2023-05-10T01:11:36;1116.53;;;736.33;;
54037;SDS011;39954;48.844;9.726;2023-05-10T01:12:40;1281.43;;;782.67;;
54037;SDS011;39954;48.844;9.726;2023-05-10T01:13:47;1284.47;;;795.45;;
54037;SDS011;39954;48.844;9.726;2023-05-10T01:14:57;1199.00;;;776.78;;
54037;SDS011;39954;48.844;9.726;2023-05-10T01:16:02;1148.47;;;783.80;;
54037;SDS011;39954;48.844;9.726;2023-05-10T01:17:05;1157.95;;;777.53;;
54037;SDS011;39954;48.844;9.726;2023-05-10T01:18:11;1165.75;;;760.03;;
54037;SDS011;39954;48.844;9.726;2023-05-10T01:19:18;1398.10;;;775.28;;
54037;SDS011;39954;48.844;9.726;2023-05-10T01:20:26;1156.05;;;726.13;;
54037;SDS011;39954;48.844;9.726;2023-05-10T01:21:36;1255.28;;;748.92;;
54037;SDS011;39954;48.844;9.726;2023-05-10T01:27:26;1246.97;;;757.03;;
54037;SDS011;39954;48.844;9.726;2023-05-10T01:32:09;1406.43;;;739.83;;
54037;SDS011;39954;48.844;9.726;2023-05-10T01:33:23;1250.78;;;723.72;;
54037;SDS011;39954;48.844;9.726;2023-05-10T01:34:32;1211.93;;;729.50;;
54037;SDS011;39954;48.844;9.726;2023-05-10T01:35:38;1140.57;;;730.38;;
54037;SDS011;39954;48.844;9.726;2023-05-10T01:36:48;1314.50;;;752.38;;
54037;SDS011;39954;48.844;9.726;2023-05-10T01:37:58;1275.00;;;746.08;;
54037;SDS011;39954;48.844;9.726;2023-05-10T01:39:10;1265.95;;;772.60;;
54037;SDS011;39954;48.844;9.726;2023-05-10T01:40:19;1335.22;;;769.35;;
54037;SDS011;39954;48.844;9.726;2023-05-10T01:41:33;1238.03;;;745.78;;
54037;SDS011;39954;48.844;9.726;2023-05-10T01:43:52;1258.38;;;700.83;;
54037;SDS011;39954;48.844;9.726;2023-05-10T01:44:58;1155.85;;;711.25;;
54037;SDS011;39954;48.844;9.726;2023-05-10T01:46:07;1201.30;;;730.13;;
54037;SDS011;39954;48.844;9.726;2023-05-10T01:47:17;1142.22;;;721.60;;
54037;SDS011;39954;48.844;9.726;2023-05-10T01:48:29;1384.45;;;747.90;;
54037;SDS011;39954;48.844;9.726;2023-05-10T01:49:34;1275.38;;;747.15;;
54037;SDS011;39954;48.844;9.726;2023-05-10T01:50:45;1341.10;;;745.83;;
54037;SDS011;39954;48.844;9.726;2023-05-10T01:51:50;1369.95;;;754.30;;
54037;SDS011;39954;48.844;9.726;2023-05-10T01:52:58;1227.15;;;739.40;;
54037;SDS011;39954;48.844;9.726;2023-05-10T01:54:02;1292.50;;;744.50;;
54037;SDS011;39954;48.844;9.726;2023-05-10T01:55:09;1236.47;;;738.97;;
54037;SDS011;39954;48.844;9.726;2023-05-10T01:56:15;1244.93;;;745.53;;
54037;SDS011;39954;48.844;9.726;2023-05-10T01:57:26;1357.47;;;752.45;;
54037;SDS011;39954;48.844;9.726;2023-05-10T01:58:32;1170.85;;;722.67;;
54037;SDS011;39954;48.844;9.726;2023-05-10T01:59:40;1257.30;;;754.10;;
54037;SDS011;39954;48.844;9.726;2023-05-10T02:00:47;1245.85;;;749.22;;
54037;SDS011;39954;48.844;9.726;2023-05-10T02:01:53;1485.28;;;803.83;;
54037;SDS011;39954;48.844;9.726;2023-05-10T02:03:01;1203.57;;;758.90;;
54037;SDS011;39954;48.844;9.726;2023-05-10T02:04:10;1321.82;;;770.28;;
54037;SDS011;39954;48.844;9.726;2023-05-10T02:05:17;1336.65;;;770.45;;
54037;SDS011;39954;48.844;9.726;2023-05-10T02:06:24;1239.93;;;737.10;;
54037;SDS011;39954;48.844;9.726;2023-05-10T02:07:28;1398.68;;;788.38;;
54037;SDS011;39954;48.844;9.726;2023-05-10T02:08:34;1379.13;;;767.78;;
54037;SDS011;39954;48.844;9.726;2023-05-10T02:09:38;1437.22;;;776.67;;
54037;SDS011;39954;48.844;9.726;2023-05-10T02:10:44;1391.75;;;761.13;;
54037;SDS011;39954;48.844;9.726;2023-05-10T02:11:47;1377.80;;;771.83;;
54037;SDS011;39954;48.844;9.726;2023-05-10T02:12:53;1230.65;;;753.65;;
54037;SDS011;39954;48.844;9.726;2023-05-10T02:14:00;1170.95;;;753.40;;
54037;SDS011;39954;48.844;9.726;2023-05-10T02:15:06;1226.82;;;757.72;;
54037;SDS011;39954;48.844;9.726;2023-05-10T02:16:11;1219.65;;;771.42;;
54037;SDS011;39954;48.844;9.726;2023-05-10T02:17:18;1232.95;;;770.13;;
54037;SDS011;39954;48.844;9.726;2023-05-10T02:18:23;1150.65;;;728.50;;
54037;SDS011;39954;48.844;9.726;2023-05-10T02:19:31;1125.57;;;725.38;;
54037;SDS011;39954;48.844;9.726;2023-05-10T02:20:34;1108.07;;;747.47;;
54037;SDS011;39954;48.844;9.726;2023-05-10T02:21:39;1134.38;;;748.88;;
54037;SDS011;39954;48.844;9.726;2023-05-10T02:22:43;1305.03;;;763.50;;
54037;SDS011;39954;48.844;9.726;2023-05-10T02:23:50;1151.57;;;740.60;;
54037;SDS011;39954;48.844;9.726;2023-05-10T02:24:53;1235.97;;;755.42;;
54037;SDS011;39954;48.844;9.726;2023-05-10T02:26:00;1224.88;;;747.60;;
54037;SDS011;39954;48.844;9.726;2023-05-10T02:27:03;1223.90;;;746.42;;
54037;SDS011;39954;48.844;9.726;2023-05-10T02:28:10;1125.55;;;730.53;;
54037;SDS011;39954;48.844;9.726;2023-05-10T02:29:14;1154.45;;;752.90;;
54037;SDS011;39954;48.844;9.726;2023-05-10T02:30:21;1162.00;;;741.15;;
54037;SDS011;39954;48.844;9.726;2023-05-10T02:31:24;1225.32;;;753.65;;
54037;SDS011;39954;48.844;9.726;2023-05-10T02:32:30;1141.95;;;743.55;;
54037;SDS011;39954;48.844;9.726;2023-05-10T02:33:35;1198.50;;;754.95;;
54037;SDS011;39954;48.844;9.726;2023-05-10T02:34:41;1118.50;;;756.85;;
54037;SDS011;39954;48.844;9.726;2023-05-10T02:35:46;1239.97;;;753.15;;
54037;SDS011;39954;48.844;9.726;2023-05-10T02:36:52;1203.63;;;760.15;;
54037;SDS011;39954;48.844;9.726;2023-05-10T02:37:54;1251.38;;;760.08;;
54037;SDS011;39954;48.844;9.726;2023-05-10T02:39:02;1139.85;;;753.08;;
54037;SDS011;39954;48.844;9.726;2023-05-10T02:40:06;1251.65;;;771.25;;
54037;SDS011;39954;48.844;9.726;2023-05-10T02:41:12;1144.45;;;757.28;;
54037;SDS011;39954;48.844;9.726;2023-05-10T02:42:16;1079.55;;;748.05;;
54037;SDS011;39954;48.844;9.726;2023-05-10T02:43:22;1249.40;;;757.95;;
54037;SDS011;39954;48.844;9.726;2023-05-10T02:44:26;1127.47;;;751.75;;
54037;SDS011;39954;48.844;9.726;2023-05-10T02:45:33;1057.63;;;732.38;;
54037;SDS011;39954;48.844;9.726;2023-05-10T02:46:40;1142.30;;;739.38;;
54037;SDS011;39954;48.844;9.726;2023-05-10T02:47:45;1351.30;;;769.38;;
54037;SDS011;39954;48.844;9.726;2023-05-10T02:48:49;1120.03;;;744.35;;
54037;SDS011;39954;48.844;9.726;2023-05-10T02:49:54;1257.05;;;747.63;;
54037;SDS011;39954;48.844;9.726;2023-05-10T02:51:03;1239.22;;;755.42;;
54037;SDS011;39954;48.844;9.726;2023-05-10T02:52:11;1138.82;;;723.72;;
54037;SDS011;39954;48.844;9.726;2023-05-10T02:53:18;1100.85;;;738.67;;
54037;SDS011;39954;48.844;9.726;2023-05-10T02:54:33;1179.65;;;740.55;;
54037;SDS011;39954;48.844;9.726;2023-05-10T02:55:42;1235.15;;;714.08;;
54037;SDS011;39954;48.844;9.726;2023-05-10T02:56:53;1279.90;;;743.67;;
54037;SDS011;39954;48.844;9.726;2023-05-10T02:58:00;1229.20;;;726.30;;
54037;SDS011;39954;48.844;9.726;2023-05-10T02:59:05;1295.53;;;733.13;;
54037;SDS011;39954;48.844;9.726;2023-05-10T03:00:08;1236.95;;;740.58;;
54037;SDS011;39954;48.844;9.726;2023-05-10T03:01:13;1155.95;;;726.05;;
54037;SDS011;39954;48.844;9.726;2023-05-10T03:02:18;1121.47;;;711.65;;
54037;SDS011;39954;48.844;9.726;2023-05-10T03:03:21;1436.25;;;786.63;;
54037;SDS011;39954;48.844;9.726;2023-05-10T03:04:29;1094.90;;;723.20;;
54037;SDS011;39954;48.844;9.726;2023-05-10T03:05:31;1197.18;;;739.90;;
54037;SDS011;39954;48.844;9.726;2023-05-10T03:06:36;1262.93;;;739.70;;
54037;SDS011;39954;48.844;9.726;2023-05-10T03:07:38;1165.07;;;732.85;;
54037;SDS011;39954;48.844;9.726;2023-05-10T03:08:43;1264.28;;;743.97;;
54037;SDS011;39954;48.844;9.726;2023-05-10T03:09:48;1252.63;;;756.33;;
54037;SDS011;39954;48.844;9.726;2023-05-10T03:10:54;1254.95;;;762.83;;
54037;SDS011;39954;48.844;9.726;2023-05-10T03:12:14;1177.43;;;731.72;;
54037;SDS011;39954;48.844;9.726;2023-05-10T03:13:25;1103.47;;;696.40;;
54037;SDS011;39954;48.844;9.726;2023-05-10T03:14:40;1238.88;;;729.35;;
54037;SDS011;39954;48.844;9.726;2023-05-10T03:15:56;1241.30;;;724.88;;
54037;SDS011;39954;48.844;9.726;2023-05-10T03:17:04;1082.40;;;700.67;;
54037;SDS011;39954;48.844;9.726;2023-05-10T03:18:14;1169.22;;;716.80;;
54037;SDS011;39954;48.844;9.726;2023-05-10T03:19:24;1155.43;;;729.97;;
54037;SDS011;39954;48.844;9.726;2023-05-10T03:20:35;1152.63;;;702.10;;
54037;SDS011;39954;48.844;9.726;2023-05-10T03:21:43;1230.88;;;735.70;;
54037;SDS011;39954;48.844;9.726;2023-05-10T03:22:53;1116.63;;;717.28;;
54037;SDS011;39954;48.844;9.726;2023-05-10T03:24:05;1148.43;;;720.30;;
54037;SDS011;39954;48.844;9.726;2023-05-10T03:25:10;1110.30;;;707.90;;
54037;SDS011;39954;48.844;9.726;2023-05-10T03:26:17;1168.40;;;734.47;;
54037;SDS011;39954;48.844;9.726;2023-05-10T03:27:22;1256.45;;;745.53;;
54037;SDS011;39954;48.844;9.726;2023-05-10T03:28:28;1295.78;;;747.63;;
54037;SDS011;39954;48.844;9.726;2023-05-10T03:29:31;1224.40;;;759.65;;
54037;SDS011;39954;48.844;9.726;2023-05-10T03:30:37;1229.97;;;744.17;;
54037;SDS011;39954;48.844;9.726;2023-05-10T03:31:40;1135.07;;;727.13;;
54037;SDS011;39954;48.844;9.726;2023-05-10T03:32:45;1299.45;;;763.33;;
54037;SDS011;39954;48.844;9.726;2023-05-10T03:33:47;1308.50;;;769.03;;
54037;SDS011;39954;48.844;9.726;2023-05-10T03:34:55;1274.75;;;765.92;;
54037;SDS011;39954;48.844;9.726;2023-05-10T03:35:57;1282.80;;;764.03;;
54037;SDS011;39954;48.844;9.726;2023-05-10T03:37:02;1021.15;;;728.97;;
54037;SDS011;39954;48.844;9.726;2023-05-10T03:38:07;1189.50;;;747.40;;
54037;SDS011;39954;48.844;9.726;2023-05-10T03:39:09;1089.53;;;752.42;;
54037;SDS011;39954;48.844;9.726;2023-05-10T03:40:14;1272.85;;;774.10;;
54037;SDS011;39954;48.844;9.726;2023-05-10T03:41:17;1202.68;;;757.40;;
54037;SDS011;39954;48.844;9.726;2023-05-10T03:42:21;1179.60;;;759.88;;
54037;SDS011;39954;48.844;9.726;2023-05-10T03:43:24;1257.40;;;783.08;;
54037;SDS011;39954;48.844;9.726;2023-05-10T03:44:28;1100.60;;;764.70;;
54037;SDS011;39954;48.844;9.726;2023-05-10T03:45:31;1144.55;;;767.97;;
54037;SDS011;39954;48.844;9.726;2023-05-10T03:46:36;1232.38;;;766.42;;
54037;SDS011;39954;48.844;9.726;2023-05-10T03:47:38;1137.90;;;768.90;;
54037;SDS011;39954;48.844;9.726;2023-05-10T03:48:43;1200.15;;;772.85;;
54037;SDS011;39954;48.844;9.726;2023-05-10T03:49:45;1555.65;;;848.67;;
54037;SDS011;39954;48.844;9.726;2023-05-10T03:50:52;1257.07;;;792.80;;
54037;SDS011;39954;48.844;9.726;2023-05-10T03:51:54;1384.88;;;818.78;;
54037;SDS011;39954;48.844;9.726;2023-05-10T03:52:59;1241.53;;;781.47;;
54037;SDS011;39954;48.844;9.726;2023-05-10T03:54:01;1197.75;;;777.50;;
54037;SDS011;39954;48.844;9.726;2023-05-10T03:55:06;1328.75;;;798.25;;
54037;SDS011;39954;48.844;9.726;2023-05-10T03:56:09;1144.13;;;771.47;;
54037;SDS011;39954;48.844;9.726;2023-05-10T03:57:13;1063.18;;;750.30;;
54037;SDS011;39954;48.844;9.726;2023-05-10T03:58:15;1205.57;;;784.67;;
54037;SDS011;39954;48.844;9.726;2023-05-10T03:59:20;987.85;;;741.80;;
54037;SDS011;39954;48.844;9.726;2023-05-10T04:00:22;1144.82;;;769.13;;
54037;SDS011;39954;48.844;9.726;2023-05-10T04:01:27;1114.40;;;762.45;;
54037;SDS011;39954;48.844;9.726;2023-05-10T04:02:29;998.55;;;746.90;;
54037;SDS011;39954;48.844;9.726;2023-05-10T04:03:34;1073.13;;;754.88;;
54037;SDS011;39954;48.844;9.726;2023-05-10T04:04:38;1147.28;;;763.70;;
54037;SDS011;39954;48.844;9.726;2023-05-10T04:05:43;1165.18;;;775.70;;
54037;SDS011;39954;48.844;9.726;2023-05-10T04:06:48;1240.75;;;778.08;;
54037;SDS011;39954;48.844;9.726;2023-05-10T04:07:53;1252.55;;;783.67;;
54037;SDS011;39954;48.844;9.726;2023-05-10T04:08:55;1209.88;;;778.78;;
54037;SDS011;39954;48.844;9.726;2023-05-10T04:10:01;1134.10;;;772.85;;
54037;SDS011;39954;48.844;9.726;2023-05-10T04:11:06;1090.95;;;770.78;;
54037;SDS011;39954;48.844;9.726;2023-05-10T04:12:12;1152.28;;;756.75;;
54037;SDS011;39954;48.844;9.726;2023-05-10T04:13:14;1200.18;;;767.45;;
54037;SDS011;39954;48.844;9.726;2023-05-10T04:14:18;1220.45;;;776.17;;
54037;SDS011;39954;48.844;9.726;2023-05-10T04:15:20;1236.28;;;781.88;;
54037;SDS011;39954;48.844;9.726;2023-05-10T04:16:25;1007.65;;;738.58;;
54037;SDS011;39954;48.844;9.726;2023-05-10T04:17:27;1078.65;;;740.63;;
54037;SDS011;39954;48.844;9.726;2023-05-10T04:18:32;1190.40;;;763.17;;
54037;SDS011;39954;48.844;9.726;2023-05-10T04:19:34;1206.38;;;760.95;;
54037;SDS011;39954;48.844;9.726;2023-05-10T04:20:39;1325.88;;;787.15;;
54037;SDS011;39954;48.844;9.726;2023-05-10T04:21:41;1201.60;;;777.88;;
54037;SDS011;39954;48.844;9.726;2023-05-10T04:22:49;1131.43;;;770.83;;
54037;SDS011;39954;48.844;9.726;2023-05-10T04:23:51;1278.55;;;776.90;;
54037;SDS011;39954;48.844;9.726;2023-05-10T04:24:56;1295.57;;;795.33;;
54037;SDS011;39954;48.844;9.726;2023-05-10T04:26:00;1271.00;;;772.90;;
54037;SDS011;39954;48.844;9.726;2023-05-10T04:27:06;1153.95;;;754.42;;
54037;SDS011;39954;48.844;9.726;2023-05-10T04:28:08;1195.85;;;757.65;;
54037;SDS011;39954;48.844;9.726;2023-05-10T04:29:13;1240.57;;;774.45;;
54037;SDS011;39954;48.844;9.726;2023-05-10T04:30:15;1208.05;;;779.05;;
54037;SDS011;39954;48.844;9.726;2023-05-10T04:31:20;1210.18;;;780.70;;
54037;SDS011;39954;48.844;9.726;2023-05-10T04:32:23;1239.38;;;782.05;;
54037;SDS011;39954;48.844;9.726;2023-05-10T04:33:27;1232.88;;;793.10;;
54037;SDS011;39954;48.844;9.726;2023-05-10T04:34:30;1222.45;;;788.97;;
54037;SDS011;39954;48.844;9.726;2023-05-10T04:35:35;1117.18;;;772.75;;
54037;SDS011;39954;48.844;9.726;2023-05-10T04:36:37;1250.72;;;791.63;;
54037;SDS011;39954;48.844;9.726;2023-05-10T04:37:43;1179.72;;;761.05;;
54037;SDS011;39954;48.844;9.726;2023-05-10T04:38:47;1257.07;;;789.10;;
54037;SDS011;39954;48.844;9.726;2023-05-10T04:39:52;1332.13;;;799.35;;
54037;SDS011;39954;48.844;9.726;2023-05-10T04:40:54;1238.65;;;787.08;;
54037;SDS011;39954;48.844;9.726;2023-05-10T04:42:07;1243.00;;;786.60;;
54037;SDS011;39954;48.844;9.726;2023-05-10T04:43:09;1230.57;;;802.83;;
54037;SDS011;39954;48.844;9.726;2023-05-10T04:44:14;1202.15;;;783.90;;
54037;SDS011;39954;48.844;9.726;2023-05-10T04:45:16;1227.72;;;801.10;;
54037;SDS011;39954;48.844;9.726;2023-05-10T04:46:21;1215.70;;;780.00;;
54037;SDS011;39954;48.844;9.726;2023-05-10T04:47:23;1171.75;;;770.10;;
54037;SDS011;39954;48.844;9.726;2023-05-10T04:48:28;1220.55;;;782.58;;
54037;SDS011;39954;48.844;9.726;2023-05-10T04:49:30;1143.65;;;787.60;;
54037;SDS011;39954;48.844;9.726;2023-05-10T04:50:35;1220.88;;;790.97;;
54037;SDS011;39954;48.844;9.726;2023-05-10T04:51:38;1235.63;;;777.90;;
54037;SDS011;39954;48.844;9.726;2023-05-10T04:52:42;1098.93;;;775.72;;
54037;SDS011;39954;48.844;9.726;2023-05-10T04:53:44;1085.40;;;765.08;;
54037;SDS011;39954;48.844;9.726;2023-05-10T04:55:08;1237.85;;;781.25;;
54037;SDS011;39954;48.844;9.726;2023-05-10T04:56:13;1463.18;;;811.28;;
54037;SDS011;39954;48.844;9.726;2023-05-10T04:57:15;1209.68;;;794.90;;
54037;SDS011;39954;48.844;9.726;2023-05-10T04:58:19;1224.38;;;785.65;;
54037;SDS011;39954;48.844;9.726;2023-05-10T04:59:22;1300.30;;;814.58;;
54037;SDS011;39954;48.844;9.726;2023-05-10T05:00:27;1234.50;;;796.47;;
54037;SDS011;39954;48.844;9.726;2023-05-10T05:01:29;1260.60;;;805.08;;
54037;SDS011;39954;48.844;9.726;2023-05-10T05:02:34;1270.15;;;805.50;;
54037;SDS011;39954;48.844;9.726;2023-05-10T05:03:38;1063.38;;;777.88;;
54037;SDS011;39954;48.844;9.726;2023-05-10T05:04:41;1263.47;;;810.33;;
54037;SDS011;39954;48.844;9.726;2023-05-10T05:05:46;1312.20;;;809.08;;
54037;SDS011;39954;48.844;9.726;2023-05-10T05:06:48;1265.57;;;821.30;;
54037;SDS011;39954;48.844;9.726;2023-05-10T05:07:54;1304.45;;;804.42;;
54037;SDS011;39954;48.844;9.726;2023-05-10T05:08:56;1352.35;;;823.75;;
54037;SDS011;39954;48.844;9.726;2023-05-10T05:10:01;1270.13;;;812.88;;
54037;SDS011;39954;48.844;9.726;2023-05-10T05:11:07;1127.03;;;802.08;;
54037;SDS011;39954;48.844;9.726;2023-05-10T05:12:12;1223.95;;;797.33;;
54037;SDS011;39954;48.844;9.726;2023-05-10T05:14:59;1286.45;;;771.05;;
54037;SDS011;39954;48.844;9.726;2023-05-10T05:16:05;1096.22;;;776.38;;
54037;SDS011;39954;48.844;9.726;2023-05-10T05:17:10;1203.40;;;771.60;;
54037;SDS011;39954;48.844;9.726;2023-05-10T05:18:12;1351.88;;;800.25;;
54037;SDS011;39954;48.844;9.726;2023-05-10T05:19:16;1173.15;;;781.92;;
54037;SDS011;39954;48.844;9.726;2023-05-10T05:20:19;1269.13;;;791.60;;
54037;SDS011;39954;48.844;9.726;2023-05-10T05:21:23;1228.82;;;775.60;;
54037;SDS011;39954;48.844;9.726;2023-05-10T05:22:28;1188.28;;;771.78;;
54037;SDS011;39954;48.844;9.726;2023-05-10T05:23:30;1225.25;;;789.53;;
54037;SDS011;39954;48.844;9.726;2023-05-10T05:24:35;1319.75;;;810.05;;
54037;SDS011;39954;48.844;9.726;2023-05-10T05:25:38;1223.00;;;782.13;;
54037;SDS011;39954;48.844;9.726;2023-05-10T05:26:46;1287.10;;;797.55;;
54037;SDS011;39954;48.844;9.726;2023-05-10T05:27:48;1244.55;;;783.83;;
54037;SDS011;39954;48.844;9.726;2023-05-10T05:28:53;1371.40;;;798.95;;
54037;SDS011;39954;48.844;9.726;2023-05-10T05:29:56;1328.45;;;793.92;;
54037;SDS011;39954;48.844;9.726;2023-05-10T05:31:01;1294.40;;;785.40;;
54037;SDS011;39954;48.844;9.726;2023-05-10T05:32:03;1291.72;;;772.75;;
54037;SDS011;39954;48.844;9.726;2023-05-10T05:33:10;1173.10;;;747.80;;
54037;SDS011;39954;48.844;9.726;2023-05-10T05:34:12;1210.07;;;746.88;;
54037;SDS011;39954;48.844;9.726;2023-05-10T05:35:17;1402.45;;;793.42;;
54037;SDS011;39954;48.844;9.726;2023-05-10T05:36:19;1190.97;;;736.33;;
54037;SDS011;39954;48.844;9.726;2023-05-10T05:37:24;1237.95;;;746.53;;
54037;SDS011;39954;48.844;9.726;2023-05-10T05:38:26;1182.93;;;761.58;;
54037;SDS011;39954;48.844;9.726;2023-05-10T05:39:31;1177.07;;;751.17;;
54037;SDS011;39954;48.844;9.726;2023-05-10T05:40:33;1311.00;;;777.58;;
54037;SDS011;39954;48.844;9.726;2023-05-10T05:41:38;1215.20;;;757.25;;
54037;SDS011;39954;48.844;9.726;2023-05-10T05:42:43;1212.25;;;752.03;;
54037;SDS011;39954;48.844;9.726;2023-05-10T05:43:47;1224.32;;;749.33;;
54037;SDS011;39954;48.844;9.726;2023-05-10T05:44:49;1246.85;;;750.22;;
54037;SDS011;39954;48.844;9.726;2023-05-10T05:45:54;1304.70;;;759.15;;
54037;SDS011;39954;48.844;9.726;2023-05-10T05:46:59;1287.30;;;755.63;;
54037;SDS011;39954;48.844;9.726;2023-05-10T05:48:02;1212.03;;;742.80;;
54037;SDS011;39954;48.844;9.726;2023-05-10T05:49:07;1259.82;;;752.08;;
54037;SDS011;39954;48.844;9.726;2023-05-10T05:50:09;1321.88;;;754.13;;
54037;SDS011;39954;48.844;9.726;2023-05-10T05:51:14;1212.60;;;735.85;;
54037;SDS011;39954;48.844;9.726;2023-05-10T05:52:16;1193.93;;;742.25;;
54037;SDS011;39954;48.844;9.726;2023-05-10T05:53:22;1344.43;;;763.67;;
54037;SDS011;39954;48.844;9.726;2023-05-10T05:54:25;1119.00;;;732.30;;
54037;SDS011;39954;48.844;9.726;2023-05-10T05:55:29;1241.53;;;745.95;;
54037;SDS011;39954;48.844;9.726;2023-05-10T05:56:32;1292.43;;;750.17;;
54037;SDS011;39954;48.844;9.726;2023-05-10T05:57:37;1241.88;;;743.08;;
54037;SDS011;39954;48.844;9.726;2023-05-10T05:58:45;1216.38;;;728.05;;
54037;SDS011;39954;48.844;9.726;2023-05-10T05:59:48;1318.00;;;764.67;;
54037;SDS011;39954;48.844;9.726;2023-05-10T06:00:52;1188.00;;;721.03;;
54037;SDS011;39954;48.844;9.726;2023-05-10T06:01:57;1344.97;;;757.72;;
54037;SDS011;39954;48.844;9.726;2023-05-10T06:03:02;1381.25;;;755.13;;
54037;SDS011;39954;48.844;9.726;2023-05-10T06:04:08;1223.35;;;732.65;;
54037;SDS011;39954;48.844;9.726;2023-05-10T06:05:14;1087.35;;;732.08;;
54037;SDS011;39954;48.844;9.726;2023-05-10T06:06:19;1259.60;;;754.17;;
54037;SDS011;39954;48.844;9.726;2023-05-10T06:07:23;1058.88;;;728.28;;
54037;SDS011;39954;48.844;9.726;2023-05-10T06:08:28;1206.82;;;767.05;;
54037;SDS011;39954;48.844;9.726;2023-05-10T06:09:30;1186.30;;;762.13;;
54037;SDS011;39954;48.844;9.726;2023-05-10T06:10:35;1187.90;;;750.40;;
54037;SDS011;39954;48.844;9.726;2023-05-10T06:11:37;1198.30;;;741.33;;
54037;SDS011;39954;48.844;9.726;2023-05-10T06:12:42;1271.78;;;747.03;;
54037;SDS011;39954;48.844;9.726;2023-05-10T06:13:47;1220.78;;;757.67;;
54037;SDS011;39954;48.844;9.726;2023-05-10T06:14:51;1158.68;;;743.72;;